createdAt,value
2023-02-13T00:00:21.255Z,97275.28
2023-02-13T00:02:47.856Z,97262.88
2023-02-13T00:05:14.560Z,97273.84
2023-02-13T00:07:41.026Z,97268.47
2023-02-13T00:10:08.682Z,97274.66
2023-02-13T00:12:35.711Z,97265.56
2023-02-13T00:15:02.501Z,97273.38
2023-02-13T00:17:29.077Z,97270.47
2023-02-13T00:19:55.555Z,97263.00
2023-02-13T00:22:22.251Z,97263.38
2023-02-13T00:24:48.794Z,97261.50
2023-02-13T00:27:15.279Z,97261.28
2023-02-13T00:29:41.755Z,97259.38
2023-02-13T00:32:08.989Z,97250.28
2023-02-13T00:34:35.657Z,97247.59
2023-02-13T00:37:03.206Z,97247.38
2023-02-13T00:39:30.062Z,97240.34
2023-02-13T00:41:56.595Z,97241.16
2023-02-13T00:44:23.210Z,97240.13
2023-02-13T00:46:49.891Z,97234.97
2023-02-13T00:49:17.050Z,97238.47
2023-02-13T00:51:43.700Z,97238.25
2023-02-13T00:54:10.346Z,97237.44
2023-02-13T00:56:37.317Z,97235.56
2023-02-13T00:59:05.731Z,97234.75
2023-02-13T01:01:32.680Z,97233.69
2023-02-13T01:04:00.043Z,97233.69
2023-02-13T01:06:27.635Z,97227.72
2023-02-13T01:08:54.153Z,97237.66
2023-02-13T01:11:20.959Z,97247.59
2023-02-13T01:13:47.574Z,97240.00
2023-02-13T01:16:14.369Z,97238.56
2023-02-13T01:18:40.860Z,97240.47
2023-02-13T01:21:09.336Z,97234.97
2023-02-13T01:23:38.342Z,97242.63
2023-02-13T01:26:07.102Z,97242.06
2023-02-13T01:28:34.481Z,97243.34
2023-02-13T01:31:01.686Z,97235.53
2023-02-13T01:33:29.550Z,97233.06
2023-02-13T01:35:56.061Z,97234.69
2023-02-13T01:38:22.752Z,97232.00
2023-02-13T01:40:52.037Z,97240.06
2023-02-13T01:43:19.424Z,97236.56
2023-02-13T01:45:48.911Z,97240.91
2023-02-13T01:48:21.076Z,97233.66
2023-02-13T01:50:55.869Z,97233.88
2023-02-13T01:53:26.685Z,97232.00
2023-02-13T01:56:00.325Z,97227.69
2023-02-13T01:58:32.088Z,97229.78
2023-02-13T02:00:59.506Z,97230.59
2023-02-13T02:03:35.526Z,97228.16
2023-02-13T02:06:08.137Z,97224.50
2023-02-13T02:08:35.582Z,97228.16
2023-02-13T02:11:09.602Z,97224.63
2023-02-13T02:13:36.481Z,97221.94
2023-02-13T02:16:07.592Z,97225.69
2023-02-13T02:18:34.220Z,97223.81
2023-02-13T02:21:09.807Z,97227.53
2023-02-13T02:23:45.152Z,97223.22
2023-02-13T02:26:25.462Z,97223.47
2023-02-13T02:29:13.853Z,97229.88
2023-02-13T02:32:23.004Z,97228.72
2023-02-13T02:34:53.601Z,97235.94
2023-02-13T02:37:44.742Z,97232.44
2023-02-13T02:40:36.894Z,97235.94
2023-02-13T02:43:24.187Z,97242.38
2023-02-13T02:46:26.845Z,97235.94
2023-02-13T02:49:16.085Z,97247.50
2023-02-13T02:52:01.799Z,97243.97
2023-02-13T02:54:51.618Z,97246.91
2023-02-13T02:57:25.015Z,97245.88
2023-02-13T02:59:57.861Z,97247.75
2023-02-13T03:02:24.909Z,97243.41
2023-02-13T03:04:54.441Z,97239.91
2023-02-13T03:07:23.146Z,97250.44
2023-02-13T03:09:56.363Z,97245.28
2023-02-13T03:12:25.918Z,97248.78
2023-02-13T03:14:52.457Z,97241.53
2023-02-13T03:17:19.893Z,97247.75
2023-02-13T03:19:52.394Z,97240.50
2023-02-13T03:22:26.677Z,97243.19
2023-02-13T03:25:08.397Z,97233.47
2023-02-13T03:27:51.193Z,97247.75
2023-02-13T03:30:45.619Z,97243.97
2023-02-13T03:33:28.605Z,97255.78
2023-02-13T03:36:04.541Z,97245.88
2023-02-13T03:38:54.848Z,97245.63
2023-02-13T03:41:44.685Z,97245.88
2023-02-13T03:44:20.183Z,97248.31
2023-02-13T03:46:49.768Z,97250.78
2023-02-13T03:49:19.889Z,97252.03
2023-02-13T03:51:56.223Z,97251.47
2023-02-13T03:54:37.532Z,97256.03
2023-02-13T03:57:04.319Z,97251.69
2023-02-13T03:59:34.944Z,97252.94
2023-02-13T04:02:13.904Z,97256.31
2023-02-13T04:04:50.727Z,97256.78
2023-02-13T04:07:19.512Z,97247.91
2023-02-13T04:09:46.095Z,97250.00
2023-02-13T04:12:45.325Z,97250.47
2023-02-13T04:15:28.308Z,97257.94
2023-02-13T04:18:13.906Z,97259.41
2023-02-13T04:20:40.670Z,97251.38
2023-02-13T04:23:09.356Z,97251.81
2023-02-13T04:25:38.860Z,97246.44
2023-02-13T04:28:06.291Z,97249.34
2023-02-13T04:30:33.627Z,97248.53
2023-02-13T04:33:00.321Z,97248.78
2023-02-13T04:35:26.837Z,97248.78
2023-02-13T04:37:53.381Z,97252.25
2023-02-13T04:40:20.160Z,97253.06
2023-02-13T04:42:49.801Z,97258.91
2023-02-13T04:45:16.678Z,97252.25
2023-02-13T04:47:43.268Z,97254.94
2023-02-13T04:50:10.175Z,97243.41
2023-02-13T04:52:36.648Z,97253.56
2023-02-13T04:55:03.321Z,97247.56
2023-02-13T04:57:30.024Z,97247.78
2023-02-13T04:59:56.486Z,97238.13
2023-02-13T05:02:23.092Z,97235.66
2023-02-13T05:04:49.685Z,97235.88
2023-02-13T05:07:16.301Z,97236.69
2023-02-13T05:09:42.920Z,97238.56
2023-02-13T05:12:09.374Z,97244.75
2023-02-13T05:14:36.034Z,97234.81
2023-02-13T05:17:02.648Z,97246.16
2023-02-13T05:19:29.188Z,97248.84
2023-02-13T05:21:55.672Z,97240.34
2023-02-13T05:24:22.401Z,97246.53
2023-02-13T05:26:48.900Z,97249.00
2023-02-13T05:29:15.402Z,97252.72
2023-02-13T05:31:42.042Z,97245.72
2023-02-13T05:34:08.700Z,97253.16
2023-02-13T05:36:35.231Z,97254.22
2023-02-13T05:39:01.932Z,97258.97
2023-02-13T05:41:28.501Z,97259.81
2023-02-13T05:43:55.044Z,97260.63
2023-02-13T05:46:21.616Z,97252.00
2023-02-13T05:48:48.203Z,97264.34
2023-02-13T05:51:14.740Z,97260.63
2023-02-13T05:53:41.287Z,97257.94
2023-02-13T05:56:07.775Z,97261.44
2023-02-13T05:58:34.844Z,97260.41
2023-02-13T06:01:01.472Z,97264.97
2023-02-13T06:03:29.751Z,97260.63
2023-02-13T06:05:57.112Z,97273.25
2023-02-13T06:08:23.959Z,97267.03
2023-02-13T06:10:51.312Z,97277.53
2023-02-13T06:13:18.667Z,97285.81
2023-02-13T06:15:45.786Z,97276.75
2023-02-13T06:18:12.377Z,97283.13
2023-02-13T06:20:38.930Z,97278.63
2023-02-13T06:23:05.440Z,97285.59
2023-02-13T06:25:31.944Z,97289.56
2023-02-13T06:27:58.484Z,97296.78
2023-02-13T06:30:25.051Z,97294.31
2023-02-13T06:32:51.657Z,97299.09
2023-02-13T06:35:18.195Z,97299.91
2023-02-13T06:37:44.885Z,97296.66
2023-02-13T06:40:13.003Z,97302.81
2023-02-13T06:42:39.648Z,97305.38
2023-02-13T06:45:06.895Z,97305.50
2023-02-13T06:47:33.482Z,97304.25
2023-02-13T06:50:00.017Z,97308.59
2023-02-13T06:52:26.601Z,97301.56
2023-02-13T06:54:53.284Z,97305.06
2023-02-13T06:57:19.721Z,97304.84
2023-02-13T06:59:46.205Z,97312.09
2023-02-13T07:02:13.600Z,97305.91
2023-02-13T07:04:40.346Z,97312.09
2023-02-13T07:07:06.896Z,97314.75
2023-02-13T07:09:33.783Z,97317.00
2023-02-13T07:12:03.806Z,97317.81
2023-02-13T07:14:30.475Z,97314.69
2023-02-13T07:16:57.424Z,97321.72
2023-02-13T07:19:23.894Z,97324.97
2023-02-13T07:21:50.380Z,97332.00
2023-02-13T07:24:16.940Z,97335.28
2023-02-13T07:26:43.403Z,97335.06
2023-02-13T07:29:11.791Z,97337.72
2023-02-13T07:31:39.271Z,97338.31
2023-02-13T07:34:06.176Z,97342.88
2023-02-13T07:36:32.707Z,97349.69
2023-02-13T07:38:59.325Z,97349.69
2023-02-13T07:41:26.060Z,97349.69
2023-02-13T07:43:53.353Z,97357.50
2023-02-13T07:46:19.966Z,97356.66
2023-02-13T07:48:46.596Z,97360.41
2023-02-13T07:51:13.178Z,97360.88
2023-02-13T07:53:39.938Z,97371.38
2023-02-13T07:56:10.158Z,97369.72
2023-02-13T07:58:37.993Z,97372.19
2023-02-13T08:01:12.689Z,97376.75
2023-02-13T08:03:39.340Z,97379.22
2023-02-13T08:06:07.189Z,97381.06
2023-02-13T08:08:34.591Z,97381.69
2023-02-13T08:11:20.025Z,97378.16
2023-02-13T08:13:46.582Z,97382.50
2023-02-13T08:16:13.146Z,97374.44
2023-02-13T08:18:39.841Z,97377.72
2023-02-13T08:21:06.350Z,97375.63
2023-02-13T08:23:32.966Z,97369.66
2023-02-13T08:26:01.389Z,97374.56
2023-02-13T08:28:31.260Z,97370.28
2023-02-13T08:30:57.869Z,97376.69
2023-02-13T08:33:24.601Z,97365.94
2023-02-13T08:35:51.093Z,97368.16
2023-02-13T08:38:24.916Z,97378.47
2023-02-13T08:40:51.469Z,97373.91
2023-02-13T08:43:18.214Z,97376.16
2023-02-13T08:45:44.945Z,97370.56
2023-02-13T08:48:17.476Z,97376.50
2023-02-13T08:50:44.085Z,97383.31
2023-02-13T08:53:10.805Z,97384.75
2023-02-13T08:55:37.264Z,97381.00
2023-02-13T08:58:04.961Z,97386.13
2023-02-13T09:00:31.654Z,97382.19
2023-02-13T09:03:03.114Z,97375.97
2023-02-13T09:05:31.090Z,97380.91
2023-02-13T09:08:00.894Z,97377.03
2023-02-13T09:10:27.576Z,97379.28
2023-02-13T09:12:54.935Z,97383.59
2023-02-13T09:15:21.587Z,97384.44
2023-02-13T09:17:48.271Z,97381.53
2023-02-13T09:20:14.980Z,97384.19
2023-02-13T09:22:41.931Z,97390.75
2023-02-13T09:25:09.576Z,97384.56
2023-02-13T09:27:36.226Z,97387.25
2023-02-13T09:30:03.155Z,97383.13
2023-02-13T09:32:29.839Z,97377.31
2023-02-13T09:34:56.330Z,97387.84
2023-02-13T09:37:23.147Z,97379.56
2023-02-13T09:39:49.627Z,97382.59
2023-02-13T09:42:26.829Z,97383.81
2023-02-13T09:44:59.297Z,97385.00
2023-02-13T09:47:35.921Z,97383.25
2023-02-13T09:50:22.685Z,97379.88
2023-02-13T09:52:52.697Z,97387.03
2023-02-13T09:55:24.103Z,97387.03
2023-02-13T09:58:03.154Z,97385.16
2023-02-13T10:00:34.517Z,97387.03
2023-02-13T10:03:23.449Z,97394.66
2023-02-13T10:05:55.016Z,97387.63
2023-02-13T10:08:43.281Z,97390.47
2023-02-13T10:11:09.646Z,97393.41
2023-02-13T10:13:57.985Z,97395.75
2023-02-13T10:16:35.247Z,97391.94
2023-02-13T10:19:23.102Z,97402.81
2023-02-13T10:21:52.926Z,97403.03
2023-02-13T10:24:21.981Z,97396.66
2023-02-13T10:26:48.489Z,97394.44
2023-02-13T10:29:23.568Z,97387.31
2023-02-13T10:31:52.324Z,97387.44
2023-02-13T10:34:24.991Z,97387.22
2023-02-13T10:36:51.908Z,97384.28
2023-02-13T10:39:25.193Z,97380.91
2023-02-13T10:42:00.909Z,97384.41
2023-02-13T10:44:37.761Z,97383.25
2023-02-13T10:47:22.898Z,97380.56
2023-02-13T10:50:31.855Z,97377.97
2023-02-13T10:53:08.234Z,97373.53
2023-02-13T10:56:04.287Z,97369.34
2023-02-13T10:58:47.367Z,97359.97
2023-02-13T11:01:24.426Z,97362.19
2023-02-13T11:04:05.229Z,97357.41
2023-02-13T11:06:34.673Z,97355.06
2023-02-13T11:09:01.231Z,97357.53
2023-02-13T11:11:36.760Z,97357.28
2023-02-13T11:14:19.552Z,97350.25
2023-02-13T11:17:05.161Z,97356.38
2023-02-13T11:19:37.077Z,97346.28
2023-02-13T11:22:05.656Z,97343.97
2023-02-13T11:24:32.862Z,97343.13
2023-02-13T11:27:03.559Z,97343.97
2023-02-13T11:29:32.711Z,97338.09
2023-02-13T11:32:14.600Z,97337.41
2023-02-13T11:34:41.492Z,97338.59
2023-02-13T11:37:16.254Z,97338.69
2023-02-13T11:39:44.876Z,97338.69
2023-02-13T11:42:20.182Z,97332.25
2023-02-13T11:44:55.796Z,97346.88
2023-02-13T11:47:36.074Z,97340.44
2023-02-13T11:50:04.032Z,97344.88
2023-02-13T11:52:33.876Z,97350.84
2023-02-13T11:55:27.880Z,97350.38
2023-02-13T11:58:00.295Z,97346.41
2023-02-13T12:00:30.114Z,97352.69
2023-02-13T12:02:56.780Z,97340.53
2023-02-13T12:05:26.408Z,97353.31
2023-02-13T12:07:57.343Z,97349.28
2023-02-13T12:10:33.269Z,97350.72
2023-02-13T12:13:07.173Z,97338.13
2023-02-13T12:15:36.557Z,97337.91
2023-02-13T12:18:05.612Z,97339.56
2023-02-13T12:20:52.458Z,97335.44
2023-02-13T12:23:34.009Z,97330.06
2023-02-13T12:26:26.326Z,97327.59
2023-02-13T12:29:37.086Z,97325.03
2023-02-13T12:32:18.480Z,97319.16
2023-02-13T12:35:27.361Z,97312.94
2023-02-13T12:38:27.916Z,97307.78
2023-02-13T12:41:05.279Z,97311.88
2023-02-13T12:44:05.924Z,97311.66
2023-02-13T12:47:01.279Z,97307.41
2023-02-13T12:49:52.730Z,97305.31
2023-02-13T12:52:38.169Z,97301.53
2023-02-13T12:55:35.982Z,97300.81
2023-02-13T12:58:23.314Z,97303.88
2023-02-13T13:00:55.496Z,97301.50
2023-02-13T13:03:43.673Z,97300.78
2023-02-13T13:06:16.358Z,97299.44
2023-02-13T13:08:58.035Z,97301.09
2023-02-13T13:11:32.648Z,97296.88
2023-02-13T13:14:19.115Z,97292.63
2023-02-13T13:17:01.021Z,97292.13
2023-02-13T13:19:48.009Z,97297.84
2023-02-13T13:22:33.033Z,97309.47
2023-02-13T13:25:12.672Z,97296.97
2023-02-13T13:27:49.495Z,97290.25
2023-02-13T13:30:23.559Z,97295.75
2023-02-13T13:32:56.729Z,97295.50
2023-02-13T13:35:23.510Z,97300.66
2023-02-13T13:38:11.122Z,97301.47
2023-02-13T13:41:09.437Z,97299.56
2023-02-13T13:44:04.211Z,97302.75
2023-02-13T13:46:57.211Z,97301.72
2023-02-13T13:49:54.113Z,97298.44
2023-02-13T13:52:27.428Z,97298.56
2023-02-13T13:54:55.719Z,97299.31
2023-02-13T13:57:25.683Z,97301.09
2023-02-13T13:59:56.224Z,97298.66
2023-02-13T14:02:22.718Z,97296.50
2023-02-13T14:05:11.136Z,97296.50
2023-02-13T14:07:40.185Z,97291.47
2023-02-13T14:10:25.646Z,97293.41
2023-02-13T14:12:58.073Z,97295.88
2023-02-13T14:15:33.780Z,97287.53
2023-02-13T14:18:12.215Z,97294.03
2023-02-13T14:20:47.578Z,97288.88
2023-02-13T14:23:19.161Z,97292.13
2023-02-13T14:25:46.060Z,97290.84
2023-02-13T14:28:27.052Z,97292.13
2023-02-13T14:31:07.119Z,97291.81
2023-02-13T14:33:34.061Z,97289.09
2023-02-13T14:36:17.094Z,97280.22
2023-02-13T14:38:43.645Z,97284.28
2023-02-13T14:41:48.914Z,97286.41
2023-02-13T14:44:20.301Z,97291.25
2023-02-13T14:46:49.347Z,97288.53
2023-02-13T14:49:21.316Z,97289.03
2023-02-13T14:52:00.104Z,97284.13
2023-02-13T14:54:45.368Z,97281.66
2023-02-13T14:57:44.672Z,97280.81
2023-02-13T15:00:17.630Z,97274.94
2023-02-13T15:02:53.170Z,97274.94
2023-02-13T15:05:21.016Z,97278.72
2023-02-13T15:07:59.085Z,97275.44
2023-02-13T15:10:34.646Z,97270.88
2023-02-13T15:13:02.829Z,97266.78
2023-02-13T15:15:31.932Z,97270.09
2023-02-13T15:18:18.993Z,97271.50
2023-02-13T15:20:46.969Z,97268.81
2023-02-13T15:23:25.897Z,97274.69
2023-02-13T15:26:04.514Z,97268.69
2023-02-13T15:28:32.243Z,97276.22
2023-02-13T15:31:04.675Z,97273.69
2023-02-13T15:33:51.015Z,97276.03
2023-02-13T15:36:26.627Z,97273.00
2023-02-13T15:39:00.565Z,97273.69
2023-02-13T15:41:37.381Z,97274.09
2023-02-13T15:44:04.958Z,97267.31
2023-02-13T15:46:34.017Z,97277.16
2023-02-13T15:49:09.460Z,97284.06
2023-02-13T15:51:36.475Z,97276.25
2023-02-13T15:54:05.784Z,97279.66
2023-02-13T15:56:33.617Z,97273.91
2023-02-13T15:59:01.406Z,97284.59
2023-02-13T16:01:29.216Z,97286.13
2023-02-13T16:04:04.288Z,97288.22
2023-02-13T16:06:33.092Z,97291.63
2023-02-13T16:09:01.068Z,97287.78
2023-02-13T16:11:39.999Z,97300.88
2023-02-13T16:14:21.178Z,97288.59
2023-02-13T16:16:57.746Z,97290.69
2023-02-13T16:19:41.636Z,97289.16
2023-02-13T16:22:21.157Z,97280.97
2023-02-13T16:24:52.019Z,97296.22
2023-02-13T16:27:23.610Z,97291.28
2023-02-13T16:30:02.063Z,97294.91
2023-02-13T16:32:35.389Z,97293.38
2023-02-13T16:35:27.268Z,97296.88
2023-02-13T16:37:57.982Z,97289.16
2023-02-13T16:40:27.520Z,97300.28
2023-02-13T16:42:54.058Z,97302.81
2023-02-13T16:45:24.276Z,97308.41
2023-02-13T16:47:59.725Z,97300.22
2023-02-13T16:50:26.211Z,97303.38
2023-02-13T16:53:00.849Z,97301.16
2023-02-13T16:55:27.473Z,97299.53
2023-02-13T16:58:02.022Z,97294.16
2023-02-13T17:00:28.529Z,97290.84
2023-02-13T17:02:55.026Z,97294.16
2023-02-13T17:05:24.431Z,97293.53
2023-02-13T17:07:53.384Z,97293.53
2023-02-13T17:10:31.666Z,97314.47
2023-02-13T17:13:00.837Z,97306.41
2023-02-13T17:15:30.612Z,97307.44
2023-02-13T17:17:57.513Z,97316.56
2023-02-13T17:20:27.569Z,97316.81
2023-02-13T17:22:59.261Z,97317.25
2023-02-13T17:25:29.311Z,97320.41
2023-02-13T17:27:58.223Z,97325.19
2023-02-13T17:30:28.591Z,97328.09
2023-02-13T17:33:07.745Z,97323.78
2023-02-13T17:35:34.803Z,97320.28
2023-02-13T17:38:01.323Z,97318.63
2023-02-13T17:40:28.044Z,97316.75
2023-02-13T17:42:56.170Z,97314.91
2023-02-13T17:45:25.314Z,97319.22
2023-02-13T17:47:53.081Z,97317.19
2023-02-13T17:50:20.772Z,97304.00
2023-02-13T17:52:48.447Z,97307.53
2023-02-13T17:55:27.539Z,97311.47
2023-02-13T17:57:55.720Z,97308.78
2023-02-13T18:00:24.033Z,97311.25
2023-02-13T18:02:51.424Z,97306.91
2023-02-13T18:05:19.398Z,97309.59
2023-02-13T18:07:47.497Z,97314.97
2023-02-13T18:10:18.638Z,97311.13
2023-02-13T18:12:46.395Z,97313.47
2023-02-13T18:15:13.786Z,97313.47
2023-02-13T18:17:41.129Z,97315.94
2023-02-13T18:20:11.465Z,97311.59
2023-02-13T18:22:38.011Z,97312.66
2023-02-13T18:25:05.389Z,97305.28
2023-02-13T18:27:31.914Z,97303.06
2023-02-13T18:29:58.772Z,97304.09
2023-02-13T18:32:25.653Z,97300.81
2023-02-13T18:34:52.214Z,97303.72
2023-02-13T18:37:19.418Z,97305.38
2023-02-13T18:39:45.998Z,97307.47
2023-02-13T18:42:12.864Z,97305.59
2023-02-13T18:44:40.154Z,97314.94
2023-02-13T18:47:07.108Z,97305.84
2023-02-13T18:49:33.670Z,97308.28
2023-02-13T18:52:00.126Z,97307.69
2023-02-13T18:54:26.621Z,97303.38
2023-02-13T18:56:53.364Z,97304.41
2023-02-13T18:59:19.971Z,97299.25
2023-02-13T19:01:46.561Z,97308.34
2023-02-13T19:04:13.112Z,97310.25
2023-02-13T19:06:41.398Z,97315.63
2023-02-13T19:09:08.196Z,97310.25
2023-02-13T19:11:35.092Z,97321.56
2023-02-13T19:14:01.704Z,97313.50
2023-02-13T19:16:30.426Z,97310.00
2023-02-13T19:19:00.029Z,97311.88
2023-02-13T19:21:29.865Z,97308.97
2023-02-13T19:23:57.026Z,97309.78
2023-02-13T19:26:25.537Z,97308.13
2023-02-13T19:28:52.587Z,97304.41
2023-02-13T19:31:22.455Z,97295.53
2023-02-13T19:33:50.012Z,97298.47
2023-02-13T19:36:27.519Z,97299.50
2023-02-13T19:39:06.098Z,97302.84
2023-02-13T19:41:32.922Z,97295.38
2023-02-13T19:43:59.941Z,97303.44
2023-02-13T19:46:29.480Z,97302.03
2023-02-13T19:48:56.296Z,97299.00
2023-02-13T19:51:33.752Z,97300.03
2023-02-13T19:54:06.013Z,97297.81
2023-02-13T19:56:36.350Z,97298.03
2023-02-13T19:59:04.385Z,97298.63
2023-02-13T20:01:30.919Z,97297.81
2023-02-13T20:03:57.780Z,97303.41
2023-02-13T20:06:28.041Z,97302.81
2023-02-13T20:08:59.508Z,97311.56
2023-02-13T20:11:26.076Z,97297.53
2023-02-13T20:13:54.054Z,97302.06
2023-02-13T20:16:20.689Z,97306.03
2023-02-13T20:18:47.511Z,97311.84
2023-02-13T20:21:16.005Z,97321.53
2023-02-13T20:23:43.627Z,97314.09
2023-02-13T20:26:13.953Z,97307.31
2023-02-13T20:28:42.168Z,97301.13
2023-02-13T20:31:13.953Z,97313.72
2023-02-13T20:33:40.887Z,97312.31
2023-02-13T20:36:13.973Z,97315.81
2023-02-13T20:38:41.230Z,97306.53
2023-02-13T20:41:13.302Z,97301.25
2023-02-13T20:43:39.881Z,97306.41
2023-02-13T20:46:07.176Z,97308.06
2023-02-13T20:48:38.000Z,97308.06
2023-02-13T20:51:07.267Z,97316.34
2023-02-13T20:53:34.484Z,97307.47
2023-02-13T20:56:29.297Z,97308.50
2023-02-13T20:58:58.346Z,97308.50
2023-02-13T21:01:32.083Z,97308.28
2023-02-13T21:03:59.241Z,97310.75
2023-02-13T21:06:32.047Z,97311.78
2023-02-13T21:08:58.829Z,97306.19
2023-02-13T21:11:26.313Z,97304.34
2023-02-13T21:13:52.848Z,97297.75
2023-02-13T21:16:23.154Z,97293.66
2023-02-13T21:18:51.694Z,97296.56
2023-02-13T21:21:20.228Z,97295.97
2023-02-13T21:23:47.171Z,97294.31
2023-02-13T21:26:16.741Z,97299.09
2023-02-13T21:28:45.722Z,97292.72
2023-02-13T21:31:19.251Z,97289.19
2023-02-13T21:33:46.322Z,97294.53
2023-02-13T21:36:13.235Z,97288.38
2023-02-13T21:38:41.075Z,97284.88
2023-02-13T21:41:13.752Z,97275.16
2023-02-13T21:43:41.548Z,97273.28
2023-02-13T21:46:10.484Z,97270.03
2023-02-13T21:48:38.277Z,97271.09
2023-02-13T21:51:07.696Z,97263.50
2023-02-13T21:53:34.607Z,97265.09
2023-02-13T21:56:02.800Z,97254.38
2023-02-13T21:58:31.841Z,97255.25
2023-02-13T22:00:58.685Z,97242.47
2023-02-13T22:03:25.390Z,97243.50
2023-02-13T22:05:52.034Z,97237.31
2023-02-13T22:08:18.519Z,97236.25
2023-02-13T22:10:53.910Z,97240.22
2023-02-13T22:13:20.403Z,97236.34
2023-02-13T22:15:46.947Z,97227.69
2023-02-13T22:18:13.548Z,97240.53
2023-02-13T22:20:40.223Z,97234.78
2023-02-13T22:23:06.848Z,97237.09
2023-02-13T22:25:33.438Z,97236.72
2023-02-13T22:27:59.949Z,97235.06
2023-02-13T22:30:26.592Z,97231.34
2023-02-13T22:32:53.096Z,97239.41
2023-02-13T22:35:19.607Z,97242.09
2023-02-13T22:37:46.171Z,97245.00
2023-02-13T22:40:12.899Z,97240.44
2023-02-13T22:42:39.503Z,97246.03
2023-02-13T22:45:06.322Z,97241.09
2023-02-13T22:47:32.939Z,97242.97
2023-02-13T22:49:59.554Z,97240.16
2023-02-13T22:52:25.999Z,97234.78
2023-02-13T22:54:52.476Z,97236.19
2023-02-13T22:57:18.987Z,97236.41
2023-02-13T22:59:45.470Z,97240.16
2023-02-13T23:02:12.085Z,97239.31
2023-02-13T23:04:38.642Z,97246.56
2023-02-13T23:07:05.286Z,97248.88
2023-02-13T23:09:31.845Z,97248.25
2023-02-13T23:11:58.351Z,97248.72
2023-02-13T23:14:25.152Z,97244.38
2023-02-13T23:16:51.759Z,97248.94
2023-02-13T23:19:18.677Z,97241.47
2023-02-13T23:21:45.159Z,97235.53
2023-02-13T23:24:11.760Z,97238.44
2023-02-13T23:26:38.282Z,97238.22
2023-02-13T23:29:04.841Z,97237.38
2023-02-13T23:31:31.462Z,97240.66
2023-02-13T23:33:58.062Z,97236.34
2023-02-13T23:36:24.741Z,97235.75
2023-02-13T23:38:51.253Z,97244.81
2023-02-13T23:41:17.881Z,97242.00
2023-02-13T23:43:44.613Z,97234.97
2023-02-13T23:46:11.187Z,97247.81
2023-02-13T23:48:37.727Z,97253.97
2023-02-13T23:51:04.342Z,97252.31
2023-02-13T23:53:30.977Z,97249.88
2023-02-13T23:55:57.504Z,97246.59
2023-02-13T23:58:24.057Z,97247.66
